Time;durP1;ratioP1;P1;durP2;ratioP2;P2;SDS_P1;SDS_P2;PMS_P1;PMS_P2;Temp;Humidity;BMP_temperature;BMP_pressure;BME280_temperature;BME280_humidity;BME280_pressure;Samples;Min_cycle;Max_cycle;Signal;HPM_P1;HPM_P2
2023/10/03 00:02:07;;;;;;;;;22.50;18.75;;;;;19.63;78.34;100881.38;4996950;28;8854;-67
2023/10/03 00:04:34;;;;;;;;;17.75;17.50;;;;;19.64;78.02;100891.22;4991488;28;8839;-68
2023/10/03 00:07:01;;;;;;;;;25.25;16.50;;;;;19.64;77.72;100896.69;4990742;28;8870;-68
2023/10/03 00:09:28;;;;;;;;;17.00;16.50;;;;;19.65;77.40;100890.16;4975415;28;8851;-68
2023/10/03 00:11:55;;;;;;;;;17.00;16.00;;;;;19.62;77.30;100878.91;4993086;28;8853;-69
2023/10/03 00:14:21;;;;;;;;;22.25;18.00;;;;;19.60;76.65;100868.19;4989576;28;8860;-67
2023/10/03 00:16:48;;;;;;;;;20.00;16.00;;;;;19.62;76.61;100871.56;4983781;28;8822;-67
2023/10/03 00:19:14;;;;;;;;;24.25;16.50;;;;;19.60;76.44;100862.75;4992954;28;8980;-66
2023/10/03 00:21:41;;;;;;;;;20.25;14.25;;;;;19.61;76.07;100858.97;4984091;28;9017;-67
2023/10/03 00:24:08;;;;;;;;;23.25;17.75;;;;;19.61;75.55;100863.59;4985824;28;8854;-66
2023/10/03 00:26:34;;;;;;;;;21.25;19.75;;;;;19.61;75.66;100856.25;4990500;28;9824;-67
2023/10/03 00:29:01;;;;;;;;;20.00;15.25;;;;;19.63;75.71;100856.00;4993530;28;10009;-68
2023/10/03 00:31:29;;;;;;;;;25.75;21.00;;;;;19.63;75.46;100859.53;4980543;28;8866;-68
2023/10/03 00:33:56;;;;;;;;;19.00;16.50;;;;;19.63;75.26;100862.28;4984153;28;8829;-69
2023/10/03 00:36:24;;;;;;;;;23.25;20.00;;;;;19.60;74.98;100851.81;4974175;28;9565;-68
2023/10/03 00:38:51;;;;;;;;;20.75;19.50;;;;;19.54;74.94;100846.56;4985109;28;9589;-68
2023/10/03 00:41:19;;;;;;;;;20.25;18.25;;;;;19.54;74.94;100832.91;4993049;28;8916;-67
2023/10/03 00:44:01;;;;;;;;;18.50;14.75;;;;;19.52;75.19;100825.78;4993405;28;8830;-66
2023/10/03 00:46:30;;;;;;;;;15.25;14.00;;;;;19.51;75.03;100815.13;4986604;28;8854;-67
2023/10/03 00:48:58;;;;;;;;;22.00;16.00;;;;;19.50;74.90;100819.75;5001413;28;8830;-67
2023/10/03 00:51:25;;;;;;;;;22.25;20.50;;;;;19.52;74.91;100808.56;4988299;28;8847;-67
2023/10/03 00:53:56;;;;;;;;;22.00;18.25;;;;;19.55;74.84;100801.78;4974081;28;8862;-68
2023/10/03 00:56:23;;;;;;;;;28.00;21.50;;;;;19.52;74.67;100797.66;4969880;28;8841;-68
2023/10/03 00:58:51;;;;;;;;;21.25;17.25;;;;;19.52;74.45;100782.09;4985764;28;8949;-66
2023/10/03 01:01:18;;;;;;;;;20.67;19.00;;;;;19.55;74.30;100794.41;4991818;28;8854;-67
2023/10/03 01:03:47;;;;;;;;;26.33;21.00;;;;;19.51;74.25;100793.28;4992840;28;9001;-66
2023/10/03 01:06:15;;;;;;;;;23.00;21.25;;;;;19.50;74.34;100791.63;4973754;28;8939;-67
2023/10/03 01:08:47;;;;;;;;;19.75;18.00;;;;;19.51;74.17;100787.81;4991896;28;8910;-66
2023/10/03 01:11:17;;;;;;;;;20.67;19.00;;;;;19.47;74.03;100773.84;4974443;28;8847;-67
2023/10/03 01:13:49;;;;;;;;;21.00;18.50;;;;;19.46;74.23;100771.38;4988672;28;8949;-67
2023/10/03 01:16:28;;;;;;;;;23.75;19.00;;;;;19.45;74.00;100764.28;4971184;28;8863;-67
2023/10/03 01:18:59;;;;;;;;;24.00;20.33;;;;;19.40;74.16;100764.19;4990393;28;8850;-67
2023/10/03 01:21:26;;;;;;;;;22.75;19.25;;;;;19.38;74.25;100756.28;4991341;28;8920;-67
2023/10/03 01:23:54;;;;;;;;;21.25;17.75;;;;;19.37;74.31;100749.19;4975007;28;8862;-67
2023/10/03 01:26:22;;;;;;;;;22.00;19.00;;;;;19.40;74.44;100734.16;4973712;28;8843;-66
2023/10/03 01:28:48;;;;;;;;;21.33;20.00;;;;;19.40;74.55;100731.44;4974118;28;8851;-66
2023/10/03 01:31:15;;;;;;;;;20.25;18.50;;;;;19.41;74.37;100733.13;4982748;28;8940;-68
2023/10/03 01:33:42;;;;;;;;;21.50;21.25;;;;;19.41;74.36;100727.66;4985175;28;8850;-66
2023/10/03 01:36:10;;;;;;;;;21.00;18.25;;;;;19.39;74.45;100721.59;4974748;28;8837;-66
2023/10/03 01:38:37;;;;;;;;;18.75;16.25;;;;;19.40;74.29;100720.53;4974770;28;8851;-67
2023/10/03 01:41:06;;;;;;;;;23.33;16.33;;;;;19.37;74.31;100715.59;4992291;28;8827;-67
2023/10/03 01:43:33;;;;;;;;;28.75;20.00;;;;;19.34;74.43;100716.09;4990028;28;8960;-66
2023/10/03 01:45:59;;;;;;;;;21.50;16.75;;;;;19.35;74.43;100712.28;4974101;28;8838;-67
2023/10/03 01:48:26;;;;;;;;;16.50;12.75;;;;;19.33;74.53;100711.72;4989162;28;8810;-66
2023/10/03 01:50:53;;;;;;;;;26.00;22.75;;;;;19.27;74.29;100702.63;4991626;28;8847;-67
2023/10/03 01:53:20;;;;;;;;;23.00;22.00;;;;;19.23;74.32;100694.13;4987191;28;8842;-67
2023/10/03 01:55:48;;;;;;;;;25.25;20.25;;;;;19.26;74.20;100703.72;4984252;28;9759;-66
2023/10/03 01:58:15;;;;;;;;;24.25;18.25;;;;;19.25;74.33;100696.63;4982305;28;8822;-66
2023/10/03 02:00:41;;;;;;;;;24.50;19.75;;;;;19.23;74.23;100701.50;4979235;28;8904;-67
2023/10/03 02:03:12;;;;;;;;;19.50;17.75;;;;;19.29;74.08;100699.69;4973536;28;8887;-67
2023/10/03 02:05:42;;;;;;;;;22.33;19.67;;;;;19.29;74.13;100716.06;4988825;28;8838;-67
2023/10/03 02:08:15;;;;;;;;;18.00;16.75;;;;;19.30;74.31;100712.22;4981184;28;8919;-66
2023/10/03 02:10:44;;;;;;;;;24.75;18.25;;;;;19.30;74.48;100704.88;4982585;28;8957;-66
2023/10/03 02:13:14;;;;;;;;;22.00;20.50;;;;;19.30;74.26;100690.41;4975180;28;9008;-67
2023/10/03 02:15:42;;;;;;;;;25.25;19.00;;;;;19.27;74.53;100684.34;4991323;28;8823;-67
2023/10/03 02:18:09;;;;;;;;;25.75;21.00;;;;;19.25;74.41;100692.00;4973704;28;8839;-67
2023/10/03 02:20:46;;;;;;;;;20.00;17.00;;;;;19.30;74.41;100679.47;4972801;28;8865;-66
2023/10/03 02:23:25;;;;;;;;;23.50;18.75;;;;;19.32;74.21;100680.84;4975102;28;9713;-65
2023/10/03 02:25:54;;;;;;;;;24.50;18.50;;;;;19.33;74.35;100662.59;4990389;28;9668;-66
2023/10/03 02:28:21;;;;;;;;;19.50;18.00;;;;;19.32;74.30;100659.03;4972504;28;8843;-66
2023/10/03 02:30:50;;;;;;;;;22.50;19.50;;;;;19.30;74.55;100658.47;4976835;28;8857;-67
2023/10/03 02:33:18;;;;;;;;;24.75;21.75;;;;;19.25;74.59;100645.59;4978113;28;8870;-67
2023/10/03 02:35:46;;;;;;;;;20.50;16.50;;;;;19.23;74.74;100650.47;4971684;28;8871;-67
2023/10/03 02:38:24;;;;;;;;;22.00;18.00;;;;;19.22;75.07;100648.00;4981137;28;8859;-67
2023/10/03 02:40:59;;;;;;;;;21.75;18.25;;;;;19.27;75.09;100645.31;4987746;28;8871;-67
2023/10/03 02:43:30;;;;;;;;;22.00;16.25;;;;;19.29;75.14;100642.38;4954289;28;8853;-67
2023/10/03 02:45:59;;;;;;;;;19.00;18.75;;;;;19.25;75.20;100642.88;5004169;28;8832;-67
2023/10/03 02:48:29;;;;;;;;;20.33;18.00;;;;;19.27;75.15;100637.13;4958215;28;8829;-68
2023/10/03 02:50:55;;;;;;;;;18.00;17.75;;;;;19.28;75.15;100638.78;5017492;22;9008;-70
2023/10/03 02:53:22;;;;;;;;;19.25;18.50;;;;;19.27;75.52;100637.97;5009337;28;8863;-70
2023/10/03 02:55:52;;;;;;;;;18.75;18.75;;;;;19.23;75.48;100627.81;5009644;28;8855;-70
2023/10/03 02:58:20;;;;;;;;;22.75;18.00;;;;;19.22;75.75;100632.47;5008625;28;8852;-70
2023/10/03 03:00:54;;;;;;;;;20.50;18.50;;;;;19.25;76.04;100636.59;4992883;28;8863;-70
2023/10/03 03:03:23;;;;;;;;;23.25;20.00;;;;;19.24;76.18;100635.78;4980315;28;8841;-70
2023/10/03 03:05:50;;;;;;;;;16.75;13.00;;;;;19.25;76.18;100648.31;4990747;28;8861;-70
2023/10/03 03:10:56;;;;;;;;;18.00;14.50;;;;;19.25;76.52;100637.41;4978241;28;8921;-70
2023/10/03 03:13:32;;;;;;;;;19.25;15.75;;;;;19.26;76.83;100639.06;4958569;28;8915;-70
2023/10/03 03:16:00;;;;;;;;;13.25;11.50;;;;;19.30;76.89;100641.28;4990565;28;8872;-71
2023/10/03 03:18:36;;;;;;;;;11.25;11.00;;;;;19.31;77.00;100643.72;4990344;28;8855;-70
2023/10/03 03:21:07;;;;;;;;;20.50;14.00;;;;;19.32;77.21;100642.66;4984706;28;8995;-70
2023/10/03 03:23:36;;;;;;;;;18.75;18.00;;;;;19.31;77.64;100646.47;4959970;28;8883;-70
2023/10/03 03:26:17;;;;;;;;;14.00;13.25;;;;;19.32;78.05;100642.66;4988254;28;8869;-70
2023/10/03 03:28:47;;;;;;;;;16.00;13.50;;;;;19.34;79.24;100651.41;4988613;28;8865;-70
2023/10/03 03:31:26;;;;;;;;;14.75;14.50;;;;;19.34;79.63;100643.22;4988544;28;9582;-69
2023/10/03 03:33:56;;;;;;;;;25.00;15.00;;;;;19.43;79.70;100646.31;4984334;28;9054;-69
2023/10/03 03:36:34;;;;;;;;;14.50;11.75;;;;;19.47;79.80;100655.63;4992575;28;8953;-69
2023/10/03 03:39:05;;;;;;;;;13.50;12.75;;;;;19.50;79.81;100646.94;4993979;28;8819;-69
2023/10/03 03:41:32;;;;;;;;;16.75;15.50;;;;;19.47;80.27;100650.19;4991000;28;8847;-70
2023/10/03 03:43:59;;;;;;;;;15.75;14.75;;;;;19.43;80.48;100660.78;4991654;28;8854;-69
2023/10/03 03:46:29;;;;;;;;;12.00;12.00;;;;;19.45;80.68;100657.81;4993906;28;8839;-70
2023/10/03 03:48:58;;;;;;;;;16.00;16.00;;;;;19.48;80.44;100660.00;4976839;28;8851;-69
2023/10/03 03:51:24;;;;;;;;;18.00;16.75;;;;;19.43;81.06;100654.50;4987553;28;8865;-69
2023/10/03 03:53:51;;;;;;;;;17.50;14.50;;;;;19.42;81.27;100667.34;4993862;28;9009;-69
2023/10/03 03:56:18;;;;;;;;;18.25;15.75;;;;;19.42;81.07;100653.69;4989269;28;10534;-69
2023/10/03 03:58:45;;;;;;;;;17.50;15.00;;;;;19.37;81.45;100656.38;4982438;28;9838;-69
2023/10/03 04:01:23;;;;;;;;;18.75;15.75;;;;;19.35;81.85;100652.22;4991906;28;8958;-70
2023/10/03 04:03:50;;;;;;;;;11.75;11.50;;;;;19.35;81.49;100663.16;4990816;28;8883;-69
2023/10/03 04:06:20;;;;;;;;;12.25;12.25;;;;;19.33;82.00;100676.25;4984891;28;8870;-69
2023/10/03 04:08:48;;;;;;;;;14.25;10.00;;;;;19.33;81.82;100668.88;4991771;28;8853;-70
2023/10/03 04:11:33;;;;;;;;;13.75;12.25;;;;;19.37;81.67;100666.47;4986042;28;8863;-70
2023/10/03 04:14:04;;;;;;;;;11.00;8.25;;;;;19.33;81.06;100655.22;4974690;28;8851;-70
2023/10/03 04:16:38;;;;;;;;;12.00;11.25;;;;;19.29;81.20;100665.00;4993397;28;9547;-71
2023/10/03 04:19:05;;;;;;;;;11.75;10.50;;;;;19.27;81.50;100665.25;4972335;28;9036;-71
2023/10/03 04:21:32;;;;;;;;;12.50;9.50;;;;;19.23;81.29;100675.03;4986111;28;8856;-71
2023/10/03 04:23:59;;;;;;;;;13.50;11.75;;;;;19.21;81.27;100690.03;4991942;28;8873;-70
2023/10/03 04:26:26;;;;;;;;;13.50;7.75;;;;;19.18;81.13;100687.81;4975184;28;8859;-71
2023/10/03 04:28:52;;;;;;;;;11.00;9.75;;;;;19.12;81.36;100678.75;4973098;28;9596;-72
2023/10/03 04:31:20;;;;;;;;;13.75;9.75;;;;;19.15;81.08;100672.75;4990746;28;8830;-71
2023/10/03 04:33:46;;;;;;;;;14.00;8.25;;;;;19.13;81.09;100680.38;4983312;28;8861;-71
2023/10/03 04:36:15;;;;;;;;;12.25;9.25;;;;;19.10;80.92;100696.44;4975031;28;8967;-71
2023/10/03 04:38:42;;;;;;;;;7.00;6.50;;;;;19.03;80.69;100691.16;4984121;28;8838;-71
2023/10/03 04:41:09;;;;;;;;;8.25;7.50;;;;;18.99;80.64;100688.13;4974654;28;8862;-71
2023/10/03 04:43:37;;;;;;;;;11.00;10.00;;;;;18.96;80.21;100676.91;4975197;28;8869;-71
2023/10/03 04:46:04;;;;;;;;;6.50;5.50;;;;;18.96;79.98;100694.09;4990263;28;8866;-71
2023/10/03 04:48:31;;;;;;;;;5.75;5.00;;;;;18.99;79.82;100695.47;4993026;28;9696;-71
2023/10/03 04:50:59;;;;;;;;;7.00;7.00;;;;;19.00;79.63;100699.88;4992736;28;8856;-69
2023/10/03 04:53:26;;;;;;;;;6.50;3.00;;;;;18.99;79.65;100690.03;4975297;28;8878;-69
2023/10/03 04:55:52;;;;;;;;;5.75;5.50;;;;;18.98;79.69;100675.56;4992175;28;8835;-69
2023/10/03 04:58:19;;;;;;;;;9.25;7.00;;;;;19.03;79.78;100680.25;4992892;28;8839;-69
2023/10/03 05:00:45;;;;;;;;;6.75;4.00;;;;;19.03;79.53;100672.88;4980009;28;8868;-69
2023/10/03 05:03:13;;;;;;;;;5.75;4.25;;;;;18.90;78.87;100684.19;4991897;28;8874;-69
2023/10/03 05:05:40;;;;;;;;;4.50;4.00;;;;;18.82;78.79;100690.09;4975193;28;8864;-70
2023/10/03 05:08:06;;;;;;;;;3.00;3.00;;;;;18.80;78.31;100694.97;4975851;28;8923;-69
2023/10/03 05:10:36;;;;;;;;;3.25;3.00;;;;;18.83;78.13;100707.28;4991736;28;9588;-70
2023/10/03 05:13:05;;;;;;;;;3.50;3.50;;;;;18.82;77.81;100709.19;4992685;28;8841;-70
2023/10/03 05:15:32;;;;;;;;;2.75;2.75;;;;;18.79;77.60;100709.66;4992584;28;8917;-69
2023/10/03 05:18:00;;;;;;;;;7.25;4.50;;;;;18.69;77.60;100702.16;4956064;28;8838;-69
2023/10/03 05:20:40;;;;;;;;;4.75;4.75;;;;;18.67;77.79;100701.56;4988263;28;8909;-70
2023/10/03 05:23:07;;;;;;;;;2.75;2.00;;;;;18.74;77.75;100695.97;4991029;28;8850;-70
2023/10/03 05:25:37;;;;;;;;;8.50;4.75;;;;;18.75;77.63;100700.34;4973568;28;8877;-69
2023/10/03 05:28:10;;;;;;;;;5.00;4.25;;;;;18.80;77.53;100710.50;4990054;28;9586;-70
2023/10/03 05:30:38;;;;;;;;;4.00;4.00;;;;;18.76;77.75;100711.03;4989318;28;8977;-70
2023/10/03 05:33:07;;;;;;;;;4.25;4.25;;;;;18.80;77.67;100711.34;4990561;28;8892;-69
2023/10/03 05:35:35;;;;;;;;;5.00;5.00;;;;;18.76;77.78;100716.47;4989697;28;8822;-69
2023/10/03 05:38:08;;;;;;;;;4.00;3.00;;;;;18.73;78.04;100714.25;4992275;28;8894;-71
2023/10/03 05:40:36;;;;;;;;;7.00;4.75;;;;;18.70;78.16;100722.91;4973735;28;8894;-70
2023/10/03 05:43:07;;;;;;;;;3.25;2.75;;;;;18.71;78.41;100718.28;4981367;28;8870;-71
2023/10/03 05:45:34;;;;;;;;;4.00;4.00;;;;;18.66;78.89;100715.47;4973993;28;8941;-71
2023/10/03 05:48:03;;;;;;;;;6.50;6.00;;;;;18.69;79.09;100710.34;4989095;28;8894;-71
2023/10/03 05:50:32;;;;;;;;;5.00;5.00;;;;;18.69;78.71;100715.78;4973443;28;8928;-71
2023/10/03 05:52:59;;;;;;;;;4.25;3.75;;;;;18.68;78.84;100725.06;4973929;28;8853;-71
2023/10/03 05:55:26;;;;;;;;;4.00;2.50;;;;;18.70;78.73;100735.72;4979686;28;8867;-70
2023/10/03 05:57:53;;;;;;;;;3.00;3.00;;;;;18.72;78.44;100736.31;4971179;28;8843;-70
2023/10/03 06:00:19;;;;;;;;;3.75;3.75;;;;;18.71;78.54;100745.56;4988180;28;8893;-70
2023/10/03 06:02:50;;;;;;;;;6.00;4.75;;;;;18.63;78.10;100757.66;4990123;28;8874;-71
2023/10/03 06:05:17;;;;;;;;;1.50;1.00;;;;;18.64;78.02;100744.91;4986533;28;8956;-71
2023/10/03 06:07:44;;;;;;;;;3.00;3.00;;;;;18.66;78.04;100754.44;4981272;28;8849;-71
2023/10/03 06:10:13;;;;;;;;;2.50;2.50;;;;;18.70;77.96;100761.09;4972677;28;8851;-71
2023/10/03 06:12:39;;;;;;;;;3.00;2.25;;;;;18.71;78.27;100762.72;4987297;28;8855;-71
2023/10/03 06:15:06;;;;;;;;;3.75;3.75;;;;;18.70;78.10;100755.63;4983837;28;8845;-71
2023/10/03 06:17:33;;;;;;;;;4.00;4.00;;;;;18.70;78.27;100747.47;4969815;28;8879;-71
2023/10/03 06:20:01;;;;;;;;;3.00;3.00;;;;;18.71;78.16;100760.00;4990021;28;8838;-70
2023/10/03 06:22:27;;;;;;;;;4.00;4.00;;;;;18.70;78.13;100760.25;4968212;28;8879;-70
2023/10/03 06:24:57;;;;;;;;;6.00;5.00;;;;;18.67;78.73;100771.63;4984064;28;9564;-69
2023/10/03 06:27:26;;;;;;;;;6.75;4.00;;;;;18.66;79.08;100779.00;4990712;28;8912;-70
2023/10/03 06:29:53;;;;;;;;;4.25;4.25;;;;;18.68;79.02;100767.84;4989487;28;9573;-71
2023/10/03 06:32:20;;;;;;;;;4.00;3.25;;;;;18.71;79.44;100776.38;4956753;28;8838;-71
2023/10/03 06:34:47;;;;;;;;;7.25;7.00;;;;;18.69;79.95;100796.78;4987066;28;8866;-71
2023/10/03 06:37:13;;;;;;;;;6.25;4.00;;;;;18.71;80.58;100800.09;4979312;28;8861;-71
2023/10/03 06:39:41;;;;;;;;;6.00;6.00;;;;;18.61;81.23;100805.38;4987909;28;8942;-71
2023/10/03 06:42:08;;;;;;;;;7.00;7.00;;;;;18.57;82.18;100824.13;4978832;28;8823;-71
2023/10/03 06:44:36;;;;;;;;;6.00;5.00;;;;;18.62;82.63;100832.38;4973614;28;8847;-70
2023/10/03 06:47:07;;;;;;;;;5.67;5.00;;;;;18.62;83.00;100837.00;4978779;28;8845;-71
2023/10/03 06:49:33;;;;;;;;;4.75;4.50;;;;;18.57;83.09;100845.94;4964664;28;8885;-71
2023/10/03 06:52:01;;;;;;;;;5.25;3.00;;;;;18.53;83.09;100847.50;4970587;28;9581;-69
2023/10/03 06:54:29;;;;;;;;;3.50;3.00;;;;;18.48;83.43;100847.41;4970708;28;8879;-69
2023/10/03 06:56:56;;;;;;;;;2.00;1.50;;;;;18.44;83.48;100865.34;4985971;28;9538;-69
2023/10/03 06:59:23;;;;;;;;;3.25;2.00;;;;;18.38;83.43;100866.31;4985649;28;8869;-69
2023/10/03 07:01:49;;;;;;;;;2.00;0.50;;;;;18.37;83.25;100875.56;4965431;28;8859;-70
2023/10/03 07:04:16;;;;;;;;;1.25;1.00;;;;;18.36;83.29;100882.91;4985380;28;8859;-70
2023/10/03 07:06:43;;;;;;;;;1.50;0.25;;;;;18.33;82.77;100893.47;4987826;28;8838;-70
2023/10/03 07:09:11;;;;;;;;;1.50;0.75;;;;;18.31;83.26;100898.31;4964271;28;8842;-69
2023/10/03 07:11:38;;;;;;;;;0.75;0.75;;;;;18.25;83.19;100928.22;4986411;28;9020;-69
2023/10/03 07:14:04;;;;;;;;;0.50;0.50;;;;;18.25;83.46;100936.38;4971081;28;8854;-70
2023/10/03 07:16:37;;;;;;;;;0.00;0.00;;;;;18.26;83.10;100940.75;4987381;28;8992;-69
2023/10/03 07:19:04;;;;;;;;;1.33;0.00;;;;;18.22;83.40;100936.84;4969756;28;8858;-69
2023/10/03 07:21:34;;;;;;;;;1.00;1.00;;;;;18.12;83.24;100939.41;4989807;28;8945;-70
2023/10/03 07:24:01;;;;;;;;;1.00;1.00;;;;;18.08;84.01;100960.03;4989931;28;8857;-69
2023/10/03 07:26:27;;;;;;;;;1.00;1.00;;;;;18.09;84.20;100971.75;4974191;28;8854;-69
2023/10/03 07:28:59;;;;;;;;;1.25;1.25;;;;;18.10;84.34;100976.13;4971439;28;9597;-70
2023/10/03 07:31:26;;;;;;;;;1.25;1.00;;;;;18.11;83.66;100975.03;4981620;28;8853;-70
2023/10/03 07:33:54;;;;;;;;;0.50;0.50;;;;;18.09;84.06;100978.00;4982274;28;8865;-70
2023/10/03 07:36:21;;;;;;;;;0.25;0.25;;;;;18.08;83.99;100976.38;4989625;28;8862;-70
2023/10/03 07:38:48;;;;;;;;;0.50;0.25;;;;;18.09;83.81;100991.63;4971855;28;8871;-70
2023/10/03 07:41:17;;;;;;;;;1.25;0.75;;;;;18.04;83.73;100986.09;4990062;28;8885;-69
2023/10/03 07:43:47;;;;;;;;;1.25;0.50;;;;;17.98;83.64;100989.75;4990417;28;8839;-70
2023/10/03 07:46:25;;;;;;;;;0.00;0.00;;;;;17.94;83.45;100994.03;4976703;28;8992;-70
2023/10/03 07:48:53;;;;;;;;;1.00;0.75;;;;;17.88;82.97;101004.00;4974542;28;8851;-70
2023/10/03 07:51:26;;;;;;;;;0.00;0.00;;;;;17.86;83.09;101021.63;4972909;28;8847;-70
2023/10/03 07:53:55;;;;;;;;;1.00;1.00;;;;;17.88;82.92;101035.84;4989308;28;8851;-69
2023/10/03 07:56:29;;;;;;;;;0.75;0.00;;;;;17.87;82.70;101045.91;4989533;28;8878;-69
2023/10/03 07:59:01;;;;;;;;;1.00;1.00;;;;;17.90;82.39;101056.31;4972624;28;8881;-69
2023/10/03 08:01:29;;;;;;;;;1.00;1.00;;;;;17.92;82.22;101059.63;4972179;28;8862;-69
2023/10/03 08:04:14;;;;;;;;;1.00;1.00;;;;;17.89;81.42;101053.84;4989793;28;8849;-69
2023/10/03 08:06:41;;;;;;;;;2.00;1.00;;;;;17.87;81.70;101069.59;4967430;28;9573;-69
2023/10/03 08:09:08;;;;;;;;;1.75;1.50;;;;;17.88;81.39;101079.41;4975169;28;8859;-69
2023/10/03 08:11:36;;;;;;;;;0.00;0.00;;;;;17.88;80.97;101109.38;4985341;28;8855;-69
2023/10/03 08:14:16;;;;;;;;;1.00;1.00;;;;;17.84;80.84;101121.81;4979692;28;8855;-69
2023/10/03 08:16:44;;;;;;;;;0.75;0.75;;;;;17.79;80.79;101123.34;4970257;28;8850;-69
2023/10/03 08:19:21;;;;;;;;;0.00;0.00;;;;;17.76;80.96;101140.16;4982966;28;8892;-69
2023/10/03 08:21:52;;;;;;;;;1.25;0.25;;;;;17.69;81.29;101153.00;4993502;28;8871;-68
2023/10/03 08:24:24;;;;;;;;;0.00;0.00;;;;;17.60;81.55;101165.28;4976359;28;8837;-69
2023/10/03 08:26:52;;;;;;;;;2.50;1.00;;;;;17.49;81.67;101169.63;4992164;28;8827;-69
2023/10/03 08:29:21;;;;;;;;;0.00;0.00;;;;;17.39;81.96;101163.94;4986672;28;8855;-69
2023/10/03 08:31:58;;;;;;;;;0.00;0.00;;;;;17.29;82.99;101147.31;4974315;28;8872;-69
2023/10/03 08:34:27;;;;;;;;;0.00;0.00;;;;;17.25;83.21;101146.13;4985174;28;8842;-69
2023/10/03 08:36:58;;;;;;;;;0.00;0.00;;;;;17.17;82.71;101157.31;4974612;28;8835;-69
2023/10/03 08:39:26;;;;;;;;;0.00;0.00;;;;;17.22;83.72;101176.53;4992920;28;8839;-69
2023/10/03 08:42:12;;;;;;;;;1.25;0.00;;;;;17.28;83.23;101187.31;4993236;28;8855;-69
2023/10/03 08:44:51;;;;;;;;;0.00;0.00;;;;;17.29;83.45;101196.28;4975784;28;8846;-68
2023/10/03 08:47:31;;;;;;;;;1.00;0.00;;;;;17.27;82.83;101201.97;4975807;28;8850;-69
2023/10/03 08:50:29;;;;;;;;;0.00;0.00;;;;;17.25;83.17;101206.81;4990442;28;8823;-69
2023/10/03 08:52:56;;;;;;;;;0.00;0.00;;;;;17.19;82.34;101218.63;5021690;23;8888;-67
2023/10/03 08:55:26;;;;;;;;;0.00;0.00;;;;;17.12;82.89;101225.19;5012304;28;8840;-67
2023/10/03 08:57:53;;;;;;;;;0.00;0.00;;;;;17.07;82.85;101236.78;5012361;28;8903;-66
2023/10/03 09:00:28;;;;;;;;;1.00;0.00;;;;;16.96;81.56;101237.53;4994837;28;8856;-67
2023/10/03 09:03:09;;;;;;;;;0.00;0.00;;;;;16.83;81.81;101229.53;4991697;28;8827;-67
2023/10/03 09:05:39;;;;;;;;;0.00;0.00;;;;;16.79;82.35;101240.84;4985528;28;8838;-68
2023/10/03 09:08:12;;;;;;;;;0.00;0.00;;;;;16.84;82.21;101239.34;4998050;28;9577;-67
2023/10/03 09:10:55;;;;;;;;;1.00;0.00;;;;;16.87;82.50;101249.75;4992092;28;8842;-67
2023/10/03 09:13:23;;;;;;;;;0.75;0.75;;;;;16.94;82.08;101243.19;4992421;28;8974;-67
2023/10/03 09:16:00;;;;;;;;;0.00;0.00;;;;;16.99;82.11;101267.00;4992233;28;8850;-67
2023/10/03 09:18:29;;;;;;;;;0.00;0.00;;;;;17.09;82.09;101267.28;4992331;28;8851;-67
2023/10/03 09:20:59;;;;;;;;;0.00;0.00;;;;;17.18;81.85;101270.56;4988855;28;8835;-69
2023/10/03 09:23:39;;;;;;;;;0.00;0.00;;;;;17.25;81.39;101280.28;4992008;28;8867;-67
2023/10/03 09:26:06;;;;;;;;;0.25;0.25;;;;;17.31;81.37;101273.09;4974573;28;9601;-68
2023/10/03 09:28:36;;;;;;;;;1.00;1.00;;;;;17.38;81.50;101276.59;4992090;28;8834;-67
2023/10/03 09:31:08;;;;;;;;;0.25;0.25;;;;;17.43;81.26;101275.88;4974235;28;8834;-67
2023/10/03 09:33:39;;;;;;;;;1.00;0.50;;;;;17.44;80.87;101274.81;4991345;28;8854;-69
2023/10/03 09:36:07;;;;;;;;;0.00;0.00;;;;;17.40;80.78;101281.78;4987018;28;8857;-68
2023/10/03 09:38:42;;;;;;;;;1.00;1.00;;;;;17.44;80.58;101304.75;4973623;28;8851;-68
2023/10/03 09:41:17;;;;;;;;;1.00;1.00;;;;;17.43;80.24;101306.66;4990651;28;8890;-68
2023/10/03 09:44:05;;;;;;;;;0.00;0.00;;;;;17.41;79.93;101305.22;4990300;28;8826;-69
2023/10/03 09:46:40;;;;;;;;;1.00;0.00;;;;;17.40;79.79;101311.72;4988650;28;8934;-68
2023/10/03 09:49:10;;;;;;;;;2.50;0.50;;;;;17.40;79.02;101331.59;4991852;28;8855;-68
2023/10/03 09:51:45;;;;;;;;;1.50;1.00;;;;;17.34;78.73;101339.81;4990237;28;8841;-69
2023/10/03 09:54:15;;;;;;;;;0.25;0.00;;;;;17.26;78.68;101339.09;4991572;28;8885;-68
2023/10/03 09:56:49;;;;;;;;;0.00;0.00;;;;;17.21;78.87;101340.81;4989839;28;8859;-69
2023/10/03 09:59:18;;;;;;;;;0.75;0.75;;;;;17.17;79.01;101345.88;4984918;28;8961;-68
2023/10/03 10:01:45;;;;;;;;;0.00;0.00;;;;;17.16;79.28;101351.53;4973656;28;8851;-68
2023/10/03 10:04:14;;;;;;;;;0.00;0.00;;;;;17.14;79.58;101350.94;4989508;28;8915;-66
2023/10/03 10:06:47;;;;;;;;;0.25;0.00;;;;;17.14;79.89;101357.22;4991151;28;8851;-67
2023/10/03 10:09:39;;;;;;;;;0.00;0.00;;;;;17.17;80.18;101354.03;4967796;28;8928;-68
2023/10/03 10:12:09;;;;;;;;;0.00;0.00;;;;;17.17;79.89;101364.91;4973312;28;8848;-71
2023/10/03 10:15:01;;;;;;;;;1.00;1.00;;;;;17.16;80.46;101368.69;4982056;28;8838;-68
2023/10/03 10:17:51;;;;;;;;;1.75;0.00;;;;;17.12;79.69;101366.66;4985505;28;8830;-69
2023/10/03 10:23:02;;;;;;;;;0.25;0.25;;;;;16.98;79.82;101380.38;4971415;28;9688;-69
2023/10/03 10:25:30;;;;;;;;;0.00;0.00;;;;;16.87;79.12;101402.03;4989747;28;10789;-69
2023/10/03 10:28:08;;;;;;;;;2.00;1.00;;;;;16.77;79.39;101408.81;4990444;28;8876;-69
2023/10/03 10:30:36;;;;;;;;;1.00;0.00;;;;;16.68;79.59;101418.25;4979812;28;8849;-68
2023/10/03 10:33:18;;;;;;;;;1.50;1.00;;;;;16.69;80.45;101413.63;4990258;28;8839;-68
2023/10/03 10:36:03;;;;;;;;;0.25;0.00;;;;;16.70;80.43;101421.59;4973625;28;8978;-68
2023/10/03 10:38:33;;;;;;;;;1.00;1.00;;;;;16.68;80.63;101428.28;4954232;28;8861;-69
2023/10/03 10:41:11;;;;;;;;;0.75;0.25;;;;;16.63;80.97;101431.66;4971305;28;8880;-69
2023/10/03 10:44:13;;;;;;;;;0.50;0.00;;;;;16.65;81.31;101431.44;4985111;28;8854;-69
2023/10/03 10:46:49;;;;;;;;;0.00;0.00;;;;;16.67;81.11;101440.22;4987162;28;8874;-68
2023/10/03 10:49:33;;;;;;;;;0.00;0.00;;;;;16.70;81.19;101450.66;4990298;28;8839;-68
2023/10/03 10:52:09;;;;;;;;;0.25;0.25;;;;;16.72;81.38;101464.84;4990314;28;8839;-69
2023/10/03 10:54:39;;;;;;;;;3.00;2.25;;;;;16.70;81.24;101458.81;4981429;28;8838;-69
2023/10/03 10:57:10;;;;;;;;;2.00;1.00;;;;;16.71;81.28;101460.47;4989177;28;9583;-68
2023/10/03 10:59:40;;;;;;;;;1.00;1.00;;;;;16.69;81.26;101465.28;4971674;28;8831;-67
2023/10/03 11:02:21;;;;;;;;;2.00;0.75;;;;;16.61;81.61;101476.41;4982311;28;8876;-68
2023/10/03 11:04:59;;;;;;;;;2.00;2.00;;;;;16.49;81.29;101479.03;4987161;28;8873;-68
2023/10/03 11:07:27;;;;;;;;;1.50;0.75;;;;;16.45;81.64;101489.50;4981469;28;8964;-67
2023/10/03 11:09:55;;;;;;;;;1.00;0.50;;;;;16.45;81.74;101494.94;4988520;28;8831;-68
2023/10/03 11:12:24;;;;;;;;;2.00;2.00;;;;;16.41;81.54;101498.31;4989242;28;8862;-68
2023/10/03 11:14:53;;;;;;;;;0.25;0.25;;;;;16.39;81.13;101498.50;4982819;28;8850;-67
2023/10/03 11:17:21;;;;;;;;;1.50;1.50;;;;;16.34;80.86;101508.38;4991720;28;8838;-69
2023/10/03 11:19:50;;;;;;;;;2.75;2.00;;;;;16.27;80.16;101517.38;4990098;28;8822;-67
2023/10/03 11:22:17;;;;;;;;;1.00;1.00;;;;;16.24;80.36;101523.22;4990471;28;8830;-68
2023/10/03 11:24:45;;;;;;;;;1.00;1.00;;;;;16.25;80.39;101522.19;4987016;28;8873;-68
2023/10/03 11:27:26;;;;;;;;;0.00;0.00;;;;;16.26;80.51;101523.84;4987786;28;8856;-67
2023/10/03 11:29:53;;;;;;;;;2.00;2.00;;;;;16.27;80.55;101525.50;4968675;28;8839;-66
2023/10/03 11:32:24;;;;;;;;;0.75;0.75;;;;;16.27;80.07;101528.22;4988023;28;8854;-67
2023/10/03 11:34:54;;;;;;;;;1.00;1.00;;;;;16.27;80.18;101530.94;4987564;28;8839;-68
2023/10/03 11:37:36;;;;;;;;;2.50;1.00;;;;;16.34;80.56;101528.22;4988636;28;8916;-69
2023/10/03 11:40:18;;;;;;;;;2.50;1.00;;;;;16.40;80.33;101532.75;4973719;28;8875;-69
2023/10/03 11:42:52;;;;;;;;;0.00;0.00;;;;;16.40;80.39;101549.06;4989756;28;8863;-69
2023/10/03 11:45:23;;;;;;;;;1.75;1.00;;;;;16.37;80.02;101554.97;4989482;28;8842;-69
2023/10/03 11:48:00;;;;;;;;;1.75;1.75;;;;;16.28;79.88;101558.94;4982680;28;8854;-69